sensor_id;sensor_type;location;lat;lon;timestamp;P1;durP1;ratioP1;P2;durP2;ratioP2
4377;SDS011;2203;53.686;9.994;2023-05-10T07:34:58;6.07;;;4.00;;
4377;SDS011;2203;53.686;9.994;2023-05-10T07:37:26;7.93;;;4.47;;
4377;SDS011;2203;53.686;9.994;2023-05-10T07:39:51;7.00;;;4.20;;
4377;SDS011;2203;53.686;9.994;2023-05-10T07:42:17;6.00;;;4.10;;
4377;SDS011;2203;53.686;9.994;2023-05-10T07:44:43;9.27;;;4.57;;
4377;SDS011;2203;53.686;9.994;2023-05-10T07:47:08;11.20;;;3.97;;
4377;SDS011;2203;53.686;9.994;2023-05-10T07:49:33;13.70;;;4.60;;
4377;SDS011;2203;53.686;9.994;2023-05-10T07:51:59;5.17;;;3.80;;
4377;SDS011;2203;53.686;9.994;2023-05-10T07:54:24;6.67;;;3.90;;
4377;SDS011;2203;53.686;9.994;2023-05-10T07:56:50;4.97;;;3.67;;
4377;SDS011;2203;53.686;9.994;2023-05-10T07:59:18;18.70;;;4.03;;
4377;SDS011;2203;53.686;9.994;2023-05-10T08:01:43;11.03;;;4.00;;
4377;SDS011;2203;53.686;9.994;2023-05-10T08:09:19;16.03;;;4.97;;
4377;SDS011;2203;53.686;9.994;2023-05-10T08:11:48;8.90;;;4.43;;
4377;SDS011;2203;53.686;9.994;2023-05-10T08:17:15;12.60;;;5.00;;
4377;SDS011;2203;53.686;9.994;2023-05-10T08:19:40;6.53;;;4.40;;
4377;SDS011;2203;53.686;9.994;2023-05-10T08:22:06;10.83;;;4.27;;
4377;SDS011;2203;53.686;9.994;2023-05-10T08:29:41;8.40;;;4.30;;
4377;SDS011;2203;53.686;9.994;2023-05-10T08:32:07;11.60;;;4.30;;
4377;SDS011;2203;53.686;9.994;2023-05-10T08:34:32;6.33;;;4.10;;
4377;SDS011;2203;53.686;9.994;2023-05-10T08:36:58;11.77;;;5.43;;
4377;SDS011;2203;53.686;9.994;2023-05-10T08:39:23;11.80;;;4.77;;
4377;SDS011;2203;53.686;9.994;2023-05-10T08:41:48;6.27;;;4.20;;
4377;SDS011;2203;53.686;9.994;2023-05-10T08:44:16;8.73;;;4.20;;
4377;SDS011;2203;53.686;9.994;2023-05-10T08:46:43;8.67;;;4.20;;
4377;SDS011;2203;53.686;9.994;2023-05-10T08:49:13;12.63;;;4.43;;
4377;SDS011;2203;53.686;9.994;2023-05-10T08:51:40;8.50;;;3.60;;
4377;SDS011;2203;53.686;9.994;2023-05-10T08:54:06;10.20;;;4.00;;
4377;SDS011;2203;53.686;9.994;2023-05-10T08:56:31;5.43;;;4.20;;
4377;SDS011;2203;53.686;9.994;2023-05-10T08:58:56;7.83;;;4.13;;
4377;SDS011;2203;53.686;9.994;2023-05-10T09:01:22;5.23;;;4.10;;
4377;SDS011;2203;53.686;9.994;2023-05-10T09:03:47;6.83;;;3.50;;
4377;SDS011;2203;53.686;9.994;2023-05-10T09:06:13;8.93;;;4.97;;
4377;SDS011;2203;53.686;9.994;2023-05-10T09:08:39;19.40;;;5.00;;
4377;SDS011;2203;53.686;9.994;2023-05-10T09:11:06;7.53;;;4.43;;
4377;SDS011;2203;53.686;9.994;2023-05-10T09:13:32;10.30;;;4.20;;
4377;SDS011;2203;53.686;9.994;2023-05-10T09:15:58;10.70;;;4.10;;
4377;SDS011;2203;53.686;9.994;2023-05-10T09:18:23;8.40;;;4.30;;
4377;SDS011;2203;53.686;9.994;2023-05-10T09:20:49;10.70;;;4.43;;
4377;SDS011;2203;53.686;9.994;2023-05-10T09:23:14;13.03;;;3.97;;
4377;SDS011;2203;53.686;9.994;2023-05-10T09:25:41;10.63;;;5.20;;
4377;SDS011;2203;53.686;9.994;2023-05-10T09:28:07;8.53;;;4.37;;
4377;SDS011;2203;53.686;9.994;2023-05-10T09:30:33;8.67;;;4.40;;
4377;SDS011;2203;53.686;9.994;2023-05-10T09:32:59;15.40;;;5.67;;
4377;SDS011;2203;53.686;9.994;2023-05-10T09:35:26;7.27;;;4.63;;
4377;SDS011;2203;53.686;9.994;2023-05-10T09:37:54;9.20;;;4.60;;
4377;SDS011;2203;53.686;9.994;2023-05-10T09:40:25;14.67;;;5.37;;
4377;SDS011;2203;53.686;9.994;2023-05-10T09:45:19;10.47;;;5.10;;
4377;SDS011;2203;53.686;9.994;2023-05-10T09:47:45;7.47;;;4.43;;
4377;SDS011;2203;53.686;9.994;2023-05-10T09:50:10;13.43;;;5.53;;
4377;SDS011;2203;53.686;9.994;2023-05-10T09:52:58;11.03;;;5.40;;
4377;SDS011;2203;53.686;9.994;2023-05-10T09:55:37;19.67;;;5.67;;
4377;SDS011;2203;53.686;9.994;2023-05-10T09:58:04;13.07;;;4.87;;
4377;SDS011;2203;53.686;9.994;2023-05-10T10:00:35;8.10;;;4.97;;
4377;SDS011;2203;53.686;9.994;2023-05-10T10:03:02;11.63;;;5.27;;
4377;SDS011;2203;53.686;9.994;2023-05-10T10:05:28;13.40;;;5.20;;
4377;SDS011;2203;53.686;9.994;2023-05-10T10:08:01;6.43;;;4.87;;
4377;SDS011;2203;53.686;9.994;2023-05-10T10:10:28;11.20;;;5.53;;
4377;SDS011;2203;53.686;9.994;2023-05-10T10:12:57;18.93;;;5.80;;
4377;SDS011;2203;53.686;9.994;2023-05-10T10:15:25;10.03;;;5.10;;
4377;SDS011;2203;53.686;9.994;2023-05-10T10:17:50;9.83;;;6.00;;
4377;SDS011;2203;53.686;9.994;2023-05-10T10:20:17;14.47;;;6.23;;
4377;SDS011;2203;53.686;9.994;2023-05-10T10:22:44;15.53;;;6.30;;
4377;SDS011;2203;53.686;9.994;2023-05-10T10:25:13;10.20;;;6.10;;
4377;SDS011;2203;53.686;9.994;2023-05-10T10:35:58;13.90;;;6.70;;
4377;SDS011;2203;53.686;9.994;2023-05-10T10:38:24;11.27;;;7.70;;
4377;SDS011;2203;53.686;9.994;2023-05-10T10:41:01;10.80;;;6.93;;
4377;SDS011;2203;53.686;9.994;2023-05-10T10:43:28;12.73;;;7.83;;
4377;SDS011;2203;53.686;9.994;2023-05-10T10:46:12;14.03;;;7.63;;
4377;SDS011;2203;53.686;9.994;2023-05-10T10:48:40;12.73;;;7.30;;
4377;SDS011;2203;53.686;9.994;2023-05-10T10:51:06;13.90;;;7.80;;
4377;SDS011;2203;53.686;9.994;2023-05-10T10:53:32;19.03;;;8.60;;
4377;SDS011;2203;53.686;9.994;2023-05-10T10:56:10;16.43;;;8.00;;
4377;SDS011;2203;53.686;9.994;2023-05-10T10:58:38;14.03;;;7.47;;
4377;SDS011;2203;53.686;9.994;2023-05-10T11:01:14;21.57;;;8.20;;
4377;SDS011;2203;53.686;9.994;2023-05-10T11:06:33;15.23;;;9.00;;
4377;SDS011;2203;53.686;9.994;2023-05-10T11:08:59;14.93;;;8.30;;
4377;SDS011;2203;53.686;9.994;2023-05-10T11:11:30;18.90;;;8.97;;
4377;SDS011;2203;53.686;9.994;2023-05-10T11:13:56;34.90;;;9.07;;
4377;SDS011;2203;53.686;9.994;2023-05-10T11:16:28;11.50;;;8.20;;
4377;SDS011;2203;53.686;9.994;2023-05-10T11:21:20;17.60;;;8.63;;
4377;SDS011;2203;53.686;9.994;2023-05-10T11:27:07;15.67;;;9.30;;
4377;SDS011;2203;53.686;9.994;2023-05-10T11:29:58;12.80;;;8.30;;
4377;SDS011;2203;53.686;9.994;2023-05-10T11:32:25;15.77;;;8.80;;
4377;SDS011;2203;53.686;9.994;2023-05-10T11:35:09;18.10;;;9.00;;
4377;SDS011;2203;53.686;9.994;2023-05-10T11:37:36;17.23;;;8.80;;
4377;SDS011;2203;53.686;9.994;2023-05-10T11:40:06;14.67;;;8.50;;
4377;SDS011;2203;53.686;9.994;2023-05-10T11:42:35;26.53;;;9.60;;
4377;SDS011;2203;53.686;9.994;2023-05-10T11:45:04;14.90;;;8.53;;
4377;SDS011;2203;53.686;9.994;2023-05-10T11:50:59;14.20;;;8.73;;
4377;SDS011;2203;53.686;9.994;2023-05-10T11:57:07;19.50;;;8.67;;
4377;SDS011;2203;53.686;9.994;2023-05-10T11:59:53;18.47;;;10.17;;
4377;SDS011;2203;53.686;9.994;2023-05-10T12:02:19;15.23;;;9.93;;
4377;SDS011;2203;53.686;9.994;2023-05-10T12:04:45;13.73;;;8.87;;
4377;SDS011;2203;53.686;9.994;2023-05-10T12:07:16;12.73;;;8.53;;
4377;SDS011;2203;53.686;9.994;2023-05-10T12:10:01;15.10;;;9.27;;
4377;SDS011;2203;53.686;9.994;2023-05-10T12:12:51;13.03;;;9.07;;
4377;SDS011;2203;53.686;9.994;2023-05-10T12:15:28;20.87;;;9.60;;
4377;SDS011;2203;53.686;9.994;2023-05-10T12:17:56;19.80;;;9.47;;
4377;SDS011;2203;53.686;9.994;2023-05-10T12:20:22;16.83;;;10.30;;
4377;SDS011;2203;53.686;9.994;2023-05-10T12:22:54;15.47;;;10.63;;
4377;SDS011;2203;53.686;9.994;2023-05-10T12:25:24;14.00;;;10.37;;
4377;SDS011;2203;53.686;9.994;2023-05-10T12:27:57;15.07;;;10.50;;
4377;SDS011;2203;53.686;9.994;2023-05-10T12:30:26;16.77;;;10.10;;
4377;SDS011;2203;53.686;9.994;2023-05-10T12:32:53;44.63;;;12.20;;
4377;SDS011;2203;53.686;9.994;2023-05-10T12:35:45;24.23;;;10.40;;
4377;SDS011;2203;53.686;9.994;2023-05-10T12:41:00;13.70;;;9.73;;
4377;SDS011;2203;53.686;9.994;2023-05-10T12:43:28;16.53;;;10.93;;
4377;SDS011;2203;53.686;9.994;2023-05-10T12:45:54;15.43;;;11.27;;
4377;SDS011;2203;53.686;9.994;2023-05-10T12:48:20;20.70;;;12.60;;
4377;SDS011;2203;53.686;9.994;2023-05-10T12:50:46;26.73;;;8.93;;
4377;SDS011;2203;53.686;9.994;2023-05-10T12:53:13;13.40;;;9.40;;
4377;SDS011;2203;53.686;9.994;2023-05-10T12:55:40;16.00;;;9.50;;
4377;SDS011;2203;53.686;9.994;2023-05-10T12:58:06;17.90;;;9.27;;
4377;SDS011;2203;53.686;9.994;2023-05-10T13:00:31;15.43;;;7.90;;
4377;SDS011;2203;53.686;9.994;2023-05-10T13:02:57;10.67;;;7.63;;
4377;SDS011;2203;53.686;9.994;2023-05-10T13:05:22;12.10;;;8.50;;
4377;SDS011;2203;53.686;9.994;2023-05-10T13:07:47;13.43;;;8.53;;
4377;SDS011;2203;53.686;9.994;2023-05-10T13:10:13;10.97;;;7.60;;
4377;SDS011;2203;53.686;9.994;2023-05-10T13:12:39;10.40;;;8.03;;
4377;SDS011;2203;53.686;9.994;2023-05-10T13:15:04;19.70;;;9.23;;
4377;SDS011;2203;53.686;9.994;2023-05-10T13:17:30;11.10;;;7.90;;
4377;SDS011;2203;53.686;9.994;2023-05-10T13:19:55;20.20;;;7.87;;
4377;SDS011;2203;53.686;9.994;2023-05-10T13:22:21;12.47;;;8.43;;
4377;SDS011;2203;53.686;9.994;2023-05-10T13:24:46;10.60;;;7.63;;
4377;SDS011;2203;53.686;9.994;2023-05-10T13:27:12;11.93;;;8.67;;
4377;SDS011;2203;53.686;9.994;2023-05-10T13:29:37;8.80;;;6.70;;
4377;SDS011;2203;53.686;9.994;2023-05-10T13:32:03;10.83;;;7.10;;
4377;SDS011;2203;53.686;9.994;2023-05-10T13:34:28;9.93;;;7.23;;
4377;SDS011;2203;53.686;9.994;2023-05-10T13:36:54;9.27;;;7.00;;
4377;SDS011;2203;53.686;9.994;2023-05-10T13:39:21;15.93;;;6.47;;
4377;SDS011;2203;53.686;9.994;2023-05-10T13:41:46;11.00;;;6.00;;
4377;SDS011;2203;53.686;9.994;2023-05-10T13:44:13;7.13;;;5.77;;
4377;SDS011;2203;53.686;9.994;2023-05-10T13:46:39;6.43;;;5.70;;
4377;SDS011;2203;53.686;9.994;2023-05-10T13:49:05;7.40;;;6.60;;
4377;SDS011;2203;53.686;9.994;2023-05-10T13:51:30;10.50;;;6.30;;
4377;SDS011;2203;53.686;9.994;2023-05-10T13:53:59;9.03;;;6.07;;
4377;SDS011;2203;53.686;9.994;2023-05-10T13:56:24;9.53;;;6.23;;
4377;SDS011;2203;53.686;9.994;2023-05-10T13:58:52;7.37;;;5.77;;
4377;SDS011;2203;53.686;9.994;2023-05-10T14:01:18;9.20;;;5.27;;
4377;SDS011;2203;53.686;9.994;2023-05-10T14:03:43;12.80;;;6.10;;
4377;SDS011;2203;53.686;9.994;2023-05-10T14:06:08;9.37;;;6.40;;
4377;SDS011;2203;53.686;9.994;2023-05-10T14:08:34;9.43;;;6.43;;
4377;SDS011;2203;53.686;9.994;2023-05-10T14:11:00;9.10;;;6.17;;
4377;SDS011;2203;53.686;9.994;2023-05-10T14:13:26;10.40;;;6.33;;
4377;SDS011;2203;53.686;9.994;2023-05-10T14:15:52;10.23;;;5.80;;
4377;SDS011;2203;53.686;9.994;2023-05-10T14:18:18;13.00;;;6.60;;
4377;SDS011;2203;53.686;9.994;2023-05-10T14:20:43;10.50;;;6.27;;
4377;SDS011;2203;53.686;9.994;2023-05-10T14:30:57;11.33;;;7.43;;
4377;SDS011;2203;53.686;9.994;2023-05-10T15:10:08;12.37;;;8.10;;
4377;SDS011;2203;53.686;9.994;2023-05-10T15:12:34;12.70;;;7.90;;
4377;SDS011;2203;53.686;9.994;2023-05-10T15:14:59;8.10;;;6.90;;
4377;SDS011;2203;53.686;9.994;2023-05-10T15:17:24;13.97;;;6.67;;
4377;SDS011;2203;53.686;9.994;2023-05-10T15:19:55;10.53;;;8.13;;
4377;SDS011;2203;53.686;9.994;2023-05-10T15:30:20;8.07;;;5.80;;
4377;SDS011;2203;53.686;9.994;2023-05-10T15:44:09;7.83;;;5.90;;
4377;SDS011;2203;53.686;9.994;2023-05-10T15:46:34;10.60;;;6.27;;
4377;SDS011;2203;53.686;9.994;2023-05-10T15:49:00;11.03;;;6.47;;
4377;SDS011;2203;53.686;9.994;2023-05-10T15:51:28;9.70;;;6.50;;
4377;SDS011;2203;53.686;9.994;2023-05-10T16:59:19;11.70;;;7.60;;
4377;SDS011;2203;53.686;9.994;2023-05-10T18:14:30;12.33;;;8.40;;
4377;SDS011;2203;53.686;9.994;2023-05-10T18:23:40;9.13;;;6.87;;
4377;SDS011;2203;53.686;9.994;2023-05-10T18:26:08;15.10;;;7.27;;
4377;SDS011;2203;53.686;9.994;2023-05-10T18:29:05;10.70;;;7.33;;
4377;SDS011;2203;53.686;9.994;2023-05-10T18:31:59;8.80;;;6.03;;
4377;SDS011;2203;53.686;9.994;2023-05-10T18:34:27;8.90;;;6.30;;
4377;SDS011;2203;53.686;9.994;2023-05-10T18:36:56;11.20;;;6.40;;
4377;SDS011;2203;53.686;9.994;2023-05-10T18:39:24;8.57;;;5.63;;
4377;SDS011;2203;53.686;9.994;2023-05-10T18:41:49;9.33;;;5.80;;
4377;SDS011;2203;53.686;9.994;2023-05-10T18:44:15;9.97;;;6.30;;
4377;SDS011;2203;53.686;9.994;2023-05-10T18:46:40;11.50;;;7.77;;
4377;SDS011;2203;53.686;9.994;2023-05-10T18:49:06;13.13;;;6.80;;
4377;SDS011;2203;53.686;9.994;2023-05-10T18:51:32;8.00;;;5.57;;
4377;SDS011;2203;53.686;9.994;2023-05-10T18:54:00;11.40;;;6.97;;
4377;SDS011;2203;53.686;9.994;2023-05-10T18:56:48;8.60;;;6.03;;
4377;SDS011;2203;53.686;9.994;2023-05-10T18:59:51;6.60;;;5.00;;
4377;SDS011;2203;53.686;9.994;2023-05-10T19:07:35;6.30;;;4.40;;
4377;SDS011;2203;53.686;9.994;2023-05-10T19:10:01;5.00;;;4.40;;
4377;SDS011;2203;53.686;9.994;2023-05-10T19:12:26;7.53;;;4.73;;
4377;SDS011;2203;53.686;9.994;2023-05-10T19:14:52;5.37;;;4.13;;
4377;SDS011;2203;53.686;9.994;2023-05-10T19:17:17;8.23;;;4.90;;
4377;SDS011;2203;53.686;9.994;2023-05-10T19:19:43;4.20;;;3.80;;
4377;SDS011;2203;53.686;9.994;2023-05-10T19:22:08;5.40;;;4.27;;
4377;SDS011;2203;53.686;9.994;2023-05-10T19:24:34;5.57;;;4.47;;
4377;SDS011;2203;53.686;9.994;2023-05-10T19:27:00;5.17;;;4.20;;
4377;SDS011;2203;53.686;9.994;2023-05-10T19:29:25;4.37;;;3.87;;
4377;SDS011;2203;53.686;9.994;2023-05-10T19:31:51;3.93;;;3.43;;
4377;SDS011;2203;53.686;9.994;2023-05-10T19:34:16;5.67;;;3.60;;
4377;SDS011;2203;53.686;9.994;2023-05-10T19:36:42;4.23;;;3.83;;
4377;SDS011;2203;53.686;9.994;2023-05-10T19:39:09;4.90;;;3.73;;
4377;SDS011;2203;53.686;9.994;2023-05-10T19:41:37;4.00;;;3.40;;
4377;SDS011;2203;53.686;9.994;2023-05-10T19:55:06;4.90;;;4.18;;
4377;SDS011;2203;53.686;9.994;2023-05-10T19:57:40;5.33;;;4.77;;
4377;SDS011;2203;53.686;9.994;2023-05-10T20:00:06;4.67;;;4.00;;
4377;SDS011;2203;53.686;9.994;2023-05-10T20:02:32;4.53;;;4.13;;
4377;SDS011;2203;53.686;9.994;2023-05-10T20:04:57;5.03;;;4.53;;
4377;SDS011;2203;53.686;9.994;2023-05-10T20:07:31;7.57;;;4.73;;
4377;SDS011;2203;53.686;9.994;2023-05-10T20:09:57;6.40;;;5.73;;
4377;SDS011;2203;53.686;9.994;2023-05-10T20:12:22;8.60;;;6.70;;
4377;SDS011;2203;53.686;9.994;2023-05-10T20:14:50;10.60;;;7.03;;
4377;SDS011;2203;53.686;9.994;2023-05-10T20:17:23;9.40;;;7.90;;
4377;SDS011;2203;53.686;9.994;2023-05-10T20:19:49;12.87;;;9.40;;
4377;SDS011;2203;53.686;9.994;2023-05-10T20:22:14;13.33;;;10.03;;
4377;SDS011;2203;53.686;9.994;2023-05-10T20:24:40;13.83;;;11.30;;
4377;SDS011;2203;53.686;9.994;2023-05-10T20:27:05;16.60;;;10.03;;
4377;SDS011;2203;53.686;9.994;2023-05-10T20:29:31;14.70;;;11.03;;
4377;SDS011;2203;53.686;9.994;2023-05-10T20:31:57;13.73;;;10.60;;
4377;SDS011;2203;53.686;9.994;2023-05-10T20:34:23;13.87;;;10.67;;
4377;SDS011;2203;53.686;9.994;2023-05-10T20:36:48;14.23;;;10.80;;
4377;SDS011;2203;53.686;9.994;2023-05-10T20:39:14;17.30;;;11.40;;
4377;SDS011;2203;53.686;9.994;2023-05-10T20:41:40;14.17;;;10.80;;
4377;SDS011;2203;53.686;9.994;2023-05-10T20:44:06;16.60;;;12.10;;
4377;SDS011;2203;53.686;9.994;2023-05-10T20:46:31;17.80;;;12.77;;
4377;SDS011;2203;53.686;9.994;2023-05-10T20:48:57;15.70;;;12.10;;
4377;SDS011;2203;53.686;9.994;2023-05-10T20:51:23;18.97;;;13.10;;
4377;SDS011;2203;53.686;9.994;2023-05-10T20:53:49;20.87;;;13.23;;
4377;SDS011;2203;53.686;9.994;2023-05-10T20:56:14;19.53;;;13.43;;
4377;SDS011;2203;53.686;9.994;2023-05-10T20:58:40;22.10;;;13.83;;
4377;SDS011;2203;53.686;9.994;2023-05-10T21:01:05;20.60;;;13.10;;
4377;SDS011;2203;53.686;9.994;2023-05-10T21:03:31;22.43;;;13.77;;
4377;SDS011;2203;53.686;9.994;2023-05-10T21:05:56;17.40;;;12.23;;
4377;SDS011;2203;53.686;9.994;2023-05-10T21:08:22;21.17;;;13.47;;
4377;SDS011;2203;53.686;9.994;2023-05-10T21:10:48;21.40;;;12.87;;
4377;SDS011;2203;53.686;9.994;2023-05-10T21:13:13;21.13;;;13.30;;
4377;SDS011;2203;53.686;9.994;2023-05-10T21:15:39;26.33;;;15.03;;
4377;SDS011;2203;53.686;9.994;2023-05-10T21:18:04;23.53;;;14.00;;
4377;SDS011;2203;53.686;9.994;2023-05-10T21:20:30;22.40;;;13.90;;
4377;SDS011;2203;53.686;9.994;2023-05-10T21:22:55;26.47;;;15.60;;
4377;SDS011;2203;53.686;9.994;2023-05-10T21:25:21;24.67;;;14.60;;
4377;SDS011;2203;53.686;9.994;2023-05-10T21:27:47;23.43;;;14.60;;
4377;SDS011;2203;53.686;9.994;2023-05-10T21:30:12;21.90;;;13.63;;
4377;SDS011;2203;53.686;9.994;2023-05-10T21:48:07;22.80;;;14.63;;
4377;SDS011;2203;53.686;9.994;2023-05-10T21:50:43;24.33;;;14.63;;
4377;SDS011;2203;53.686;9.994;2023-05-10T21:53:47;26.30;;;15.47;;
4377;SDS011;2203;53.686;9.994;2023-05-10T21:56:36;25.20;;;14.93;;
4377;SDS011;2203;53.686;9.994;2023-05-10T21:59:12;32.67;;;16.90;;
4377;SDS011;2203;53.686;9.994;2023-05-10T22:14:01;27.90;;;16.73;;
4377;SDS011;2203;53.686;9.994;2023-05-10T22:20:35;27.13;;;16.73;;
4377;SDS011;2203;53.686;9.994;2023-05-10T22:23:01;29.07;;;17.50;;
4377;SDS011;2203;53.686;9.994;2023-05-10T22:25:26;27.07;;;16.40;;
4377;SDS011;2203;53.686;9.994;2023-05-10T22:28:00;31.30;;;17.23;;
4377;SDS011;2203;53.686;9.994;2023-05-10T22:30:25;31.87;;;18.00;;
4377;SDS011;2203;53.686;9.994;2023-05-10T22:41:33;34.40;;;18.37;;
4377;SDS011;2203;53.686;9.994;2023-05-10T22:43:59;33.93;;;18.57;;
4377;SDS011;2203;53.686;9.994;2023-05-10T22:46:25;45.27;;;20.60;;
4377;SDS011;2203;53.686;9.994;2023-05-10T22:48:51;34.10;;;19.67;;
4377;SDS011;2203;53.686;9.994;2023-05-10T22:51:17;32.30;;;18.67;;
4377;SDS011;2203;53.686;9.994;2023-05-10T22:58:52;34.53;;;18.10;;
4377;SDS011;2203;53.686;9.994;2023-05-10T23:01:18;38.60;;;20.00;;
4377;SDS011;2203;53.686;9.994;2023-05-10T23:03:43;30.20;;;17.70;;
4377;SDS011;2203;53.686;9.994;2023-05-10T23:06:09;31.87;;;18.00;;
4377;SDS011;2203;53.686;9.994;2023-05-10T23:08:39;33.33;;;19.27;;
4377;SDS011;2203;53.686;9.994;2023-05-10T23:11:04;36.40;;;19.60;;
4377;SDS011;2203;53.686;9.994;2023-05-10T23:16:35;39.90;;;21.17;;
4377;SDS011;2203;53.686;9.994;2023-05-10T23:19:33;36.90;;;20.03;;
4377;SDS011;2203;53.686;9.994;2023-05-10T23:45:14;36.43;;;17.80;;
